Lawson Army Air Field (Fort Benning)
KLSF : now visible

Airfield :











YOU CAN JOIN US ON...

 
LOGIN :

Register | Disclaimer

   EN    FR    IT 

 









Legend :    VFR   Marginal VFR   IFR   Intensive IFR   Very Intensive IFR
Visi :
Ceiling :
>= 8 km
>= 3000ft
5 to 8 km
1000 to 3000 ft
1500m to 5 km
500 to 1000 ft
800 to 1500m
200 to 500 ft
< 800m
< 200 ft
Symbols :   Thunderstorms  Fog  Heavy snow  Heavy precipitations  Wind > 20 kt






- Airport Elevation : 232 ft


KLSF - Lawson Army Air Field (Fort Benning)

CURRENT METAR :
  • 130506Z AUTO 04008KT 10SM -RA OVC007 07/05 A3025 RMK AO2 PRESFR SLP250

EXPIRED METARs :
  • 130424Z AUTO 00000KT 7SM RA BKN006 OVC022 07/05 A3028 RMK AO2 CIG 005 RWY15 PRESRR SLP260
  • 130414Z AUTO 08005KT 5SM +RA BR BKN005 BKN011 OVC020 07/05 A3025 RMK AO2 CIG 005V007 PRESFR SLP250
  • 130406Z AUTO 07005KT 9SM RA BKN007 BKN012 OVC022 07/05 A3027 RMK AO2 CIG 007V010 SLP256
  • 130356Z AUTO 06005KT 10SM -RA FEW003 BKN010 OVC020 07/05 A3028 RMK AO2 DZB0257E0258RAB0258 PRESFR SLP260 P0008 T00660054
  • 130337Z AUTO 00000KT 8SM -RA SCT003 OVC009 07/05 A3030 RMK AO2 DZB0257E0258RAB0258 CIG 007V010 SLP267
  • 130257Z AUTO 06003KT 10SM -DZ FEW005 OVC012 07/05 A3029 RMK AO2 DZB57 CIG 011 RWY15 SLP263

TAF AMD TAF KLSF
Valid from the 13 at 03:00 until the 14 at 07:00 UTC


130315Z 1303/1407 08009KT 4800 -RA BR FEW003 OVC007 QNH3025INS
TEMPO 1303/1306 3200 -TSRA OVC012CB
BECMG 1305/1306 08009KT 4800 -RA BR FEW003 OVC007 QNH3025INS
BECMG 1306/1307 09006KT 3200 -RA BR OVC005 QNH3024INS
TEMPO 1307/1312 0800 RA FG OVC003
BECMG 1312/1313 09006KT 8000 BR VCSH BKN006 OVC015 QNH2995INS
BECMG 1320/1321 VRB04KT 8000 BR BKN006 OVC010 QNH2980INS
TEMPO 1400/1404 6000 BR BKN002 OVC006
BECMG 1404/1405 VRB06KT 8000 BR OVC006 QNH2976INS
BECMG 1406/1407 21006KT 8000 +RA BKN006 OVC015 QNH2970INS TX12/1321Z TN06/1401Z



MET'MAP, your aeronautical weather chart ! - Copyright ORBIFLY December 2007 - Disclaimer

ORBIFLY MET'MAP TEAM :

Programming & Development : Alexandra Zaïnal
Concept & original design : Baudouin d'Aumeries
Assistance for programming : Marc-Olivier Méhu
Technical & hardware support : Manuel Goepfert

Contact : metmap@orbifly.com




SOURCES & CREDITS :

   NOAA       Earth
Advisory